sensor_id;sensor_type;location;lat;lon;timestamp;P1;durP1;ratioP1;P2;durP2;ratioP2
21122;SDS011;10719;48.130;11.630;2023-04-09T00:01:49;10.25;;;2.90;;
21122;SDS011;10719;48.130;11.630;2023-04-09T00:04:14;10.40;;;3.40;;
21122;SDS011;10719;48.130;11.630;2023-04-09T00:06:40;5.88;;;2.75;;
21122;SDS011;10719;48.130;11.630;2023-04-09T00:09:05;7.88;;;2.78;;
21122;SDS011;10719;48.130;11.630;2023-04-09T00:11:31;8.45;;;3.17;;
21122;SDS011;10719;48.130;11.630;2023-04-09T00:13:57;10.35;;;3.15;;
21122;SDS011;10719;48.130;11.630;2023-04-09T00:16:23;9.18;;;3.03;;
21122;SDS011;10719;48.130;11.630;2023-04-09T00:18:48;8.10;;;2.92;;
21122;SDS011;10719;48.130;11.630;2023-04-09T00:21:14;9.07;;;2.78;;
21122;SDS011;10719;48.130;11.630;2023-04-09T00:23:40;4.70;;;2.50;;
21122;SDS011;10719;48.130;11.630;2023-04-09T00:26:06;5.97;;;2.88;;
21122;SDS011;10719;48.130;11.630;2023-04-09T00:28:31;6.75;;;2.80;;
21122;SDS011;10719;48.130;11.630;2023-04-09T00:30:57;14.60;;;2.38;;
21122;SDS011;10719;48.130;11.630;2023-04-09T00:33:23;5.00;;;1.92;;
21122;SDS011;10719;48.130;11.630;2023-04-09T00:35:48;7.18;;;2.42;;
21122;SDS011;10719;48.130;11.630;2023-04-09T00:38:14;9.13;;;3.50;;
21122;SDS011;10719;48.130;11.630;2023-04-09T00:40:40;9.32;;;3.40;;
21122;SDS011;10719;48.130;11.630;2023-04-09T00:43:06;7.63;;;3.33;;
21122;SDS011;10719;48.130;11.630;2023-04-09T00:45:31;8.43;;;3.10;;
21122;SDS011;10719;48.130;11.630;2023-04-09T00:47:57;6.60;;;2.92;;
21122;SDS011;10719;48.130;11.630;2023-04-09T00:50:23;5.65;;;2.55;;
21122;SDS011;10719;48.130;11.630;2023-04-09T00:52:48;9.15;;;3.30;;
21122;SDS011;10719;48.130;11.630;2023-04-09T00:55:14;12.68;;;2.65;;
21122;SDS011;10719;48.130;11.630;2023-04-09T00:57:42;10.63;;;3.30;;
21122;SDS011;10719;48.130;11.630;2023-04-09T01:00:07;10.52;;;3.63;;
21122;SDS011;10719;48.130;11.630;2023-04-09T01:02:36;7.43;;;3.28;;
21122;SDS011;10719;48.130;11.630;2023-04-09T01:05:04;8.73;;;3.55;;
21122;SDS011;10719;48.130;11.630;2023-04-09T01:07:35;9.43;;;3.28;;
21122;SDS011;10719;48.130;11.630;2023-04-09T01:11:05;8.35;;;3.15;;
21122;SDS011;10719;48.130;11.630;2023-04-09T01:13:48;9.27;;;3.15;;
21122;SDS011;10719;48.130;11.630;2023-04-09T01:16:28;6.93;;;2.40;;
21122;SDS011;10719;48.130;11.630;2023-04-09T01:18:56;7.70;;;2.53;;
21122;SDS011;10719;48.130;11.630;2023-04-09T01:21:29;12.63;;;4.47;;
21122;SDS011;10719;48.130;11.630;2023-04-09T01:24:18;8.93;;;3.17;;
21122;SDS011;10719;48.130;11.630;2023-04-09T01:26:59;7.43;;;2.83;;
21122;SDS011;10719;48.130;11.630;2023-04-09T01:29:28;8.10;;;3.72;;
21122;SDS011;10719;48.130;11.630;2023-04-09T01:31:57;8.38;;;3.45;;
21122;SDS011;10719;48.130;11.630;2023-04-09T01:34:25;5.68;;;2.75;;
21122;SDS011;10719;48.130;11.630;2023-04-09T01:36:53;8.38;;;3.85;;
21122;SDS011;10719;48.130;11.630;2023-04-09T01:39:21;13.63;;;4.47;;
21122;SDS011;10719;48.130;11.630;2023-04-09T01:41:48;5.70;;;2.70;;
21122;SDS011;10719;48.130;11.630;2023-04-09T01:44:15;8.13;;;2.92;;
21122;SDS011;10719;48.130;11.630;2023-04-09T01:46:42;8.98;;;4.00;;
21122;SDS011;10719;48.130;11.630;2023-04-09T01:49:08;7.00;;;3.30;;
21122;SDS011;10719;48.130;11.630;2023-04-09T01:51:35;8.18;;;3.05;;
21122;SDS011;10719;48.130;11.630;2023-04-09T01:54:02;12.98;;;5.07;;
21122;SDS011;10719;48.130;11.630;2023-04-09T01:56:42;9.27;;;3.72;;
21122;SDS011;10719;48.130;11.630;2023-04-09T01:59:09;8.38;;;3.33;;
21122;SDS011;10719;48.130;11.630;2023-04-09T02:01:37;8.18;;;2.90;;
21122;SDS011;10719;48.130;11.630;2023-04-09T02:04:13;6.43;;;2.72;;
21122;SDS011;10719;48.130;11.630;2023-04-09T02:06:47;11.93;;;3.80;;
21122;SDS011;10719;48.130;11.630;2023-04-09T02:09:17;11.25;;;3.75;;
21122;SDS011;10719;48.130;11.630;2023-04-09T02:11:45;17.33;;;3.80;;
21122;SDS011;10719;48.130;11.630;2023-04-09T02:14:12;8.52;;;3.97;;
21122;SDS011;10719;48.130;11.630;2023-04-09T02:16:39;9.02;;;3.97;;
21122;SDS011;10719;48.130;11.630;2023-04-09T02:19:06;6.85;;;2.78;;
21122;SDS011;10719;48.130;11.630;2023-04-09T02:21:31;7.07;;;3.17;;
21122;SDS011;10719;48.130;11.630;2023-04-09T02:23:57;9.38;;;4.05;;
21122;SDS011;10719;48.130;11.630;2023-04-09T02:26:23;11.05;;;4.47;;
21122;SDS011;10719;48.130;11.630;2023-04-09T02:28:48;10.68;;;3.33;;
21122;SDS011;10719;48.130;11.630;2023-04-09T02:31:14;7.82;;;3.80;;
21122;SDS011;10719;48.130;11.630;2023-04-09T02:33:40;11.20;;;3.42;;
21122;SDS011;10719;48.130;11.630;2023-04-09T02:36:09;9.63;;;3.72;;
21122;SDS011;10719;48.130;11.630;2023-04-09T02:38:36;12.50;;;4.25;;
21122;SDS011;10719;48.130;11.630;2023-04-09T02:41:04;8.27;;;3.75;;
21122;SDS011;10719;48.130;11.630;2023-04-09T02:43:29;9.07;;;3.50;;
21122;SDS011;10719;48.130;11.630;2023-04-09T02:45:55;10.70;;;4.00;;
21122;SDS011;10719;48.130;11.630;2023-04-09T02:48:21;10.23;;;3.55;;
21122;SDS011;10719;48.130;11.630;2023-04-09T02:50:46;12.07;;;3.85;;
21122;SDS011;10719;48.130;11.630;2023-04-09T02:53:12;9.35;;;3.92;;
21122;SDS011;10719;48.130;11.630;2023-04-09T02:55:37;9.32;;;3.83;;
21122;SDS011;10719;48.130;11.630;2023-04-09T02:58:03;13.60;;;4.07;;
21122;SDS011;10719;48.130;11.630;2023-04-09T03:00:28;9.43;;;4.03;;
21122;SDS011;10719;48.130;11.630;2023-04-09T03:02:54;12.25;;;3.80;;
21122;SDS011;10719;48.130;11.630;2023-04-09T03:05:20;10.93;;;3.55;;
21122;SDS011;10719;48.130;11.630;2023-04-09T03:07:45;10.52;;;4.43;;
21122;SDS011;10719;48.130;11.630;2023-04-09T03:10:11;12.07;;;3.35;;
21122;SDS011;10719;48.130;11.630;2023-04-09T03:12:37;7.55;;;2.95;;
21122;SDS011;10719;48.130;11.630;2023-04-09T03:15:02;9.35;;;3.67;;
21122;SDS011;10719;48.130;11.630;2023-04-09T03:17:28;7.43;;;3.25;;
21122;SDS011;10719;48.130;11.630;2023-04-09T03:19:55;7.53;;;2.58;;
21122;SDS011;10719;48.130;11.630;2023-04-09T03:22:21;9.48;;;4.10;;
21122;SDS011;10719;48.130;11.630;2023-04-09T03:24:47;10.27;;;3.70;;
21122;SDS011;10719;48.130;11.630;2023-04-09T03:27:12;9.23;;;3.45;;
21122;SDS011;10719;48.130;11.630;2023-04-09T03:29:38;9.27;;;3.60;;
21122;SDS011;10719;48.130;11.630;2023-04-09T03:32:04;8.73;;;3.60;;
21122;SDS011;10719;48.130;11.630;2023-04-09T03:34:29;9.40;;;2.95;;
21122;SDS011;10719;48.130;11.630;2023-04-09T03:36:55;9.82;;;4.25;;
21122;SDS011;10719;48.130;11.630;2023-04-09T03:39:20;11.32;;;4.68;;
21122;SDS011;10719;48.130;11.630;2023-04-09T03:41:46;8.33;;;3.33;;
21122;SDS011;10719;48.130;11.630;2023-04-09T03:44:12;16.27;;;4.63;;
21122;SDS011;10719;48.130;11.630;2023-04-09T03:46:38;12.20;;;4.78;;
21122;SDS011;10719;48.130;11.630;2023-04-09T03:49:03;10.33;;;3.93;;
21122;SDS011;10719;48.130;11.630;2023-04-09T03:51:29;10.32;;;3.90;;
21122;SDS011;10719;48.130;11.630;2023-04-09T03:53:55;11.00;;;3.70;;
21122;SDS011;10719;48.130;11.630;2023-04-09T03:56:21;10.35;;;3.92;;
21122;SDS011;10719;48.130;11.630;2023-04-09T03:58:47;12.43;;;4.23;;
21122;SDS011;10719;48.130;11.630;2023-04-09T04:01:13;12.07;;;4.27;;
21122;SDS011;10719;48.130;11.630;2023-04-09T04:03:39;8.37;;;3.50;;
21122;SDS011;10719;48.130;11.630;2023-04-09T04:06:05;7.60;;;3.33;;
21122;SDS011;10719;48.130;11.630;2023-04-09T04:08:30;9.50;;;3.83;;
21122;SDS011;10719;48.130;11.630;2023-04-09T04:11:01;12.40;;;4.10;;
21122;SDS011;10719;48.130;11.630;2023-04-09T04:13:28;11.10;;;3.67;;
21122;SDS011;10719;48.130;11.630;2023-04-09T04:15:53;10.90;;;4.73;;
21122;SDS011;10719;48.130;11.630;2023-04-09T04:18:19;11.40;;;3.93;;
21122;SDS011;10719;48.130;11.630;2023-04-09T04:20:44;9.73;;;3.95;;
21122;SDS011;10719;48.130;11.630;2023-04-09T04:23:10;9.47;;;3.70;;
21122;SDS011;10719;48.130;11.630;2023-04-09T04:25:35;13.55;;;4.72;;
21122;SDS011;10719;48.130;11.630;2023-04-09T04:28:04;11.73;;;4.57;;
21122;SDS011;10719;48.130;11.630;2023-04-09T04:30:29;8.82;;;3.08;;
21122;SDS011;10719;48.130;11.630;2023-04-09T04:32:55;9.07;;;3.65;;
21122;SDS011;10719;48.130;11.630;2023-04-09T04:35:21;16.42;;;5.93;;
21122;SDS011;10719;48.130;11.630;2023-04-09T04:37:48;8.52;;;3.67;;
21122;SDS011;10719;48.130;11.630;2023-04-09T04:40:15;10.52;;;3.72;;
21122;SDS011;10719;48.130;11.630;2023-04-09T04:42:40;13.27;;;4.30;;
21122;SDS011;10719;48.130;11.630;2023-04-09T04:45:06;9.20;;;3.17;;
21122;SDS011;10719;48.130;11.630;2023-04-09T04:47:32;9.30;;;3.50;;
21122;SDS011;10719;48.130;11.630;2023-04-09T04:49:58;7.13;;;2.85;;
21122;SDS011;10719;48.130;11.630;2023-04-09T04:52:24;12.63;;;4.20;;
21122;SDS011;10719;48.130;11.630;2023-04-09T04:54:49;9.18;;;3.80;;
21122;SDS011;10719;48.130;11.630;2023-04-09T04:57:15;10.77;;;4.33;;
21122;SDS011;10719;48.130;11.630;2023-04-09T04:59:40;11.05;;;3.90;;
21122;SDS011;10719;48.130;11.630;2023-04-09T05:02:06;8.77;;;3.43;;
21122;SDS011;10719;48.130;11.630;2023-04-09T05:04:32;9.50;;;3.33;;
21122;SDS011;10719;48.130;11.630;2023-04-09T05:06:58;11.90;;;4.43;;
21122;SDS011;10719;48.130;11.630;2023-04-09T05:09:23;9.43;;;3.47;;
21122;SDS011;10719;48.130;11.630;2023-04-09T05:11:49;10.63;;;4.40;;
21122;SDS011;10719;48.130;11.630;2023-04-09T05:14:15;8.40;;;3.23;;
21122;SDS011;10719;48.130;11.630;2023-04-09T05:16:41;9.90;;;4.40;;
21122;SDS011;10719;48.130;11.630;2023-04-09T05:19:06;10.17;;;3.83;;
21122;SDS011;10719;48.130;11.630;2023-04-09T05:21:32;8.40;;;3.50;;
21122;SDS011;10719;48.130;11.630;2023-04-09T05:23:58;9.27;;;3.57;;
21122;SDS011;10719;48.130;11.630;2023-04-09T05:26:23;10.50;;;4.27;;
21122;SDS011;10719;48.130;11.630;2023-04-09T05:28:49;9.50;;;4.07;;
21122;SDS011;10719;48.130;11.630;2023-04-09T05:31:15;11.13;;;3.97;;
21122;SDS011;10719;48.130;11.630;2023-04-09T05:33:41;10.30;;;3.27;;
21122;SDS011;10719;48.130;11.630;2023-04-09T05:36:07;8.70;;;3.47;;
21122;SDS011;10719;48.130;11.630;2023-04-09T05:38:33;9.57;;;3.60;;
21122;SDS011;10719;48.130;11.630;2023-04-09T05:40:58;9.37;;;3.70;;
21122;SDS011;10719;48.130;11.630;2023-04-09T05:43:24;9.90;;;3.53;;
21122;SDS011;10719;48.130;11.630;2023-04-09T05:45:50;9.40;;;4.37;;
21122;SDS011;10719;48.130;11.630;2023-04-09T05:48:16;10.50;;;4.47;;
21122;SDS011;10719;48.130;11.630;2023-04-09T05:50:47;8.93;;;4.07;;
21122;SDS011;10719;48.130;11.630;2023-04-09T05:53:16;12.43;;;4.47;;
21122;SDS011;10719;48.130;11.630;2023-04-09T05:55:43;10.32;;;4.22;;
21122;SDS011;10719;48.130;11.630;2023-04-09T05:58:08;11.10;;;3.67;;
21122;SDS011;10719;48.130;11.630;2023-04-09T06:00:34;11.03;;;4.83;;
21122;SDS011;10719;48.130;11.630;2023-04-09T06:03:00;12.10;;;4.43;;
21122;SDS011;10719;48.130;11.630;2023-04-09T06:05:26;9.77;;;3.73;;
21122;SDS011;10719;48.130;11.630;2023-04-09T06:07:53;12.20;;;4.50;;
21122;SDS011;10719;48.130;11.630;2023-04-09T06:10:18;9.43;;;4.35;;
21122;SDS011;10719;48.130;11.630;2023-04-09T06:12:44;9.07;;;3.85;;
21122;SDS011;10719;48.130;11.630;2023-04-09T06:15:09;9.70;;;4.40;;
21122;SDS011;10719;48.130;11.630;2023-04-09T06:17:35;11.88;;;4.65;;
21122;SDS011;10719;48.130;11.630;2023-04-09T06:20:01;13.73;;;5.18;;
21122;SDS011;10719;48.130;11.630;2023-04-09T06:22:27;13.05;;;5.22;;
21122;SDS011;10719;48.130;11.630;2023-04-09T06:24:52;15.88;;;4.97;;
21122;SDS011;10719;48.130;11.630;2023-04-09T06:27:18;13.30;;;4.85;;
21122;SDS011;10719;48.130;11.630;2023-04-09T06:29:45;11.60;;;4.60;;
21122;SDS011;10719;48.130;11.630;2023-04-09T06:32:11;14.55;;;5.22;;
21122;SDS011;10719;48.130;11.630;2023-04-09T06:34:37;12.93;;;5.05;;
21122;SDS011;10719;48.130;11.630;2023-04-09T06:37:02;9.25;;;3.97;;
21122;SDS011;10719;48.130;11.630;2023-04-09T06:39:28;13.55;;;4.88;;
21122;SDS011;10719;48.130;11.630;2023-04-09T06:41:53;10.07;;;4.60;;
21122;SDS011;10719;48.130;11.630;2023-04-09T06:44:19;12.40;;;4.63;;
21122;SDS011;10719;48.130;11.630;2023-04-09T06:46:45;11.43;;;4.80;;
21122;SDS011;10719;48.130;11.630;2023-04-09T06:49:11;11.80;;;4.45;;
21122;SDS011;10719;48.130;11.630;2023-04-09T06:51:37;11.93;;;4.55;;
21122;SDS011;10719;48.130;11.630;2023-04-09T06:54:02;12.18;;;5.15;;
21122;SDS011;10719;48.130;11.630;2023-04-09T06:56:28;15.63;;;6.88;;
21122;SDS011;10719;48.130;11.630;2023-04-09T06:58:53;13.30;;;5.03;;
21122;SDS011;10719;48.130;11.630;2023-04-09T07:01:19;10.35;;;4.10;;
21122;SDS011;10719;48.130;11.630;2023-04-09T07:03:45;11.98;;;4.70;;
21122;SDS011;10719;48.130;11.630;2023-04-09T07:06:11;14.60;;;5.10;;
21122;SDS011;10719;48.130;11.630;2023-04-09T07:08:36;11.23;;;4.03;;
21122;SDS011;10719;48.130;11.630;2023-04-09T07:11:02;7.45;;;3.10;;
21122;SDS011;10719;48.130;11.630;2023-04-09T07:13:28;10.60;;;3.97;;
21122;SDS011;10719;48.130;11.630;2023-04-09T07:15:53;7.10;;;2.92;;
21122;SDS011;10719;48.130;11.630;2023-04-09T07:18:19;9.90;;;3.40;;
21122;SDS011;10719;48.130;11.630;2023-04-09T07:20:44;10.75;;;3.42;;
21122;SDS011;10719;48.130;11.630;2023-04-09T07:23:10;11.18;;;4.72;;
21122;SDS011;10719;48.130;11.630;2023-04-09T07:25:36;13.18;;;4.15;;
21122;SDS011;10719;48.130;11.630;2023-04-09T07:28:01;11.32;;;3.83;;
21122;SDS011;10719;48.130;11.630;2023-04-09T07:30:27;13.07;;;4.07;;
21122;SDS011;10719;48.130;11.630;2023-04-09T07:32:53;10.10;;;3.88;;
21122;SDS011;10719;48.130;11.630;2023-04-09T07:35:19;11.10;;;3.50;;
21122;SDS011;10719;48.130;11.630;2023-04-09T07:37:44;8.93;;;3.65;;
21122;SDS011;10719;48.130;11.630;2023-04-09T07:40:10;8.32;;;3.42;;
21122;SDS011;10719;48.130;11.630;2023-04-09T07:42:36;10.80;;;4.22;;
21122;SDS011;10719;48.130;11.630;2023-04-09T07:45:03;10.77;;;4.13;;
21122;SDS011;10719;48.130;11.630;2023-04-09T07:47:30;7.28;;;2.80;;
21122;SDS011;10719;48.130;11.630;2023-04-09T07:49:55;8.05;;;3.33;;
21122;SDS011;10719;48.130;11.630;2023-04-09T07:52:21;9.07;;;3.58;;
21122;SDS011;10719;48.130;11.630;2023-04-09T07:54:46;9.93;;;3.55;;
21122;SDS011;10719;48.130;11.630;2023-04-09T07:57:12;9.82;;;3.35;;
21122;SDS011;10719;48.130;11.630;2023-04-09T07:59:38;8.07;;;3.33;;
21122;SDS011;10719;48.130;11.630;2023-04-09T08:02:03;9.38;;;3.65;;
21122;SDS011;10719;48.130;11.630;2023-04-09T08:04:30;7.05;;;2.72;;
21122;SDS011;10719;48.130;11.630;2023-04-09T08:06:55;6.72;;;2.45;;
21122;SDS011;10719;48.130;11.630;2023-04-09T08:09:21;10.35;;;3.92;;
21122;SDS011;10719;48.130;11.630;2023-04-09T08:11:47;11.60;;;3.35;;
21122;SDS011;10719;48.130;11.630;2023-04-09T08:14:13;9.90;;;3.53;;
21122;SDS011;10719;48.130;11.630;2023-04-09T08:16:41;9.55;;;3.80;;
21122;SDS011;10719;48.130;11.630;2023-04-09T08:19:08;10.07;;;3.13;;
21122;SDS011;10719;48.130;11.630;2023-04-09T08:21:40;6.57;;;2.60;;
21122;SDS011;10719;48.130;11.630;2023-04-09T08:24:07;8.63;;;3.67;;
21122;SDS011;10719;48.130;11.630;2023-04-09T08:26:39;6.28;;;2.75;;
21122;SDS011;10719;48.130;11.630;2023-04-09T08:29:06;10.98;;;3.88;;
21122;SDS011;10719;48.130;11.630;2023-04-09T08:31:33;8.43;;;3.33;;
21122;SDS011;10719;48.130;11.630;2023-04-09T08:33:59;7.45;;;3.08;;
21122;SDS011;10719;48.130;11.630;2023-04-09T08:36:25;6.35;;;2.95;;
21122;SDS011;10719;48.130;11.630;2023-04-09T08:38:51;9.88;;;3.15;;
21122;SDS011;10719;48.130;11.630;2023-04-09T08:41:19;7.53;;;3.03;;
21122;SDS011;10719;48.130;11.630;2023-04-09T08:43:47;10.27;;;3.92;;
21122;SDS011;10719;48.130;11.630;2023-04-09T08:46:15;9.25;;;3.42;;
21122;SDS011;10719;48.130;11.630;2023-04-09T08:48:42;9.10;;;3.17;;
21122;SDS011;10719;48.130;11.630;2023-04-09T08:51:11;11.13;;;4.22;;
21122;SDS011;10719;48.130;11.630;2023-04-09T08:53:48;9.10;;;3.45;;
21122;SDS011;10719;48.130;11.630;2023-04-09T08:56:20;6.93;;;3.05;;
21122;SDS011;10719;48.130;11.630;2023-04-09T08:58:46;11.90;;;4.40;;
21122;SDS011;10719;48.130;11.630;2023-04-09T09:01:18;9.85;;;3.83;;
21122;SDS011;10719;48.130;11.630;2023-04-09T09:04:08;10.85;;;4.20;;
21122;SDS011;10719;48.130;11.630;2023-04-09T09:06:37;11.30;;;4.68;;
21122;SDS011;10719;48.130;11.630;2023-04-09T09:09:07;9.68;;;4.18;;
21122;SDS011;10719;48.130;11.630;2023-04-09T09:11:38;10.75;;;4.03;;
21122;SDS011;10719;48.130;11.630;2023-04-09T09:14:06;14.13;;;4.95;;
21122;SDS011;10719;48.130;11.630;2023-04-09T09:16:44;11.98;;;4.63;;
21122;SDS011;10719;48.130;11.630;2023-04-09T09:19:28;12.63;;;4.38;;
21122;SDS011;10719;48.130;11.630;2023-04-09T09:22:06;12.75;;;4.38;;
21122;SDS011;10719;48.130;11.630;2023-04-09T09:24:32;12.70;;;4.95;;
21122;SDS011;10719;48.130;11.630;2023-04-09T09:26:59;9.05;;;4.07;;
21122;SDS011;10719;48.130;11.630;2023-04-09T09:29:26;11.00;;;4.50;;
21122;SDS011;10719;48.130;11.630;2023-04-09T09:31:53;14.05;;;5.20;;
21122;SDS011;10719;48.130;11.630;2023-04-09T09:34:20;12.10;;;4.85;;
21122;SDS011;10719;48.130;11.630;2023-04-09T09:36:47;12.38;;;4.82;;
21122;SDS011;10719;48.130;11.630;2023-04-09T09:39:14;12.60;;;4.75;;
21122;SDS011;10719;48.130;11.630;2023-04-09T09:41:41;12.10;;;4.00;;
21122;SDS011;10719;48.130;11.630;2023-04-09T09:44:09;12.27;;;4.55;;
21122;SDS011;10719;48.130;11.630;2023-04-09T09:46:36;11.52;;;4.25;;
21122;SDS011;10719;48.130;11.630;2023-04-09T09:49:06;12.18;;;4.43;;
21122;SDS011;10719;48.130;11.630;2023-04-09T09:51:32;11.07;;;4.28;;
21122;SDS011;10719;48.130;11.630;2023-04-09T09:54:00;14.27;;;4.70;;
21122;SDS011;10719;48.130;11.630;2023-04-09T09:56:30;12.48;;;4.28;;
21122;SDS011;10719;48.130;11.630;2023-04-09T10:01:40;11.73;;;4.22;;
21122;SDS011;10719;48.130;11.630;2023-04-09T10:04:08;9.93;;;3.70;;
21122;SDS011;10719;48.130;11.630;2023-04-09T10:06:42;11.55;;;4.00;;
21122;SDS011;10719;48.130;11.630;2023-04-09T10:09:09;12.93;;;5.25;;
21122;SDS011;10719;48.130;11.630;2023-04-09T10:11:36;14.45;;;4.43;;
21122;SDS011;10719;48.130;11.630;2023-04-09T10:14:03;12.65;;;5.43;;
21122;SDS011;10719;48.130;11.630;2023-04-09T10:16:31;12.95;;;4.90;;
21122;SDS011;10719;48.130;11.630;2023-04-09T10:18:58;12.52;;;4.93;;
21122;SDS011;10719;48.130;11.630;2023-04-09T10:24:06;12.88;;;4.53;;
21122;SDS011;10719;48.130;11.630;2023-04-09T10:26:33;12.32;;;5.15;;
21122;SDS011;10719;48.130;11.630;2023-04-09T10:29:21;12.80;;;5.30;;
21122;SDS011;10719;48.130;11.630;2023-04-09T10:32:03;13.07;;;4.82;;
21122;SDS011;10719;48.130;11.630;2023-04-09T10:34:33;13.85;;;4.45;;
21122;SDS011;10719;48.130;11.630;2023-04-09T10:37:01;10.57;;;4.32;;
21122;SDS011;10719;48.130;11.630;2023-04-09T10:39:29;10.60;;;4.07;;
21122;SDS011;10719;48.130;11.630;2023-04-09T10:41:57;17.45;;;5.38;;
21122;SDS011;10719;48.130;11.630;2023-04-09T10:44:26;15.27;;;5.00;;
21122;SDS011;10719;48.130;11.630;2023-04-09T10:46:53;15.35;;;5.25;;
21122;SDS011;10719;48.130;11.630;2023-04-09T10:49:20;14.40;;;5.35;;
21122;SDS011;10719;48.130;11.630;2023-04-09T10:51:50;11.20;;;4.90;;
21122;SDS011;10719;48.130;11.630;2023-04-09T10:59:38;11.10;;;4.07;;
21122;SDS011;10719;48.130;11.630;2023-04-09T11:10:35;13.00;;;4.95;;
21122;SDS011;10719;48.130;11.630;2023-04-09T11:13:06;14.63;;;5.32;;
21122;SDS011;10719;48.130;11.630;2023-04-09T11:15:35;13.55;;;5.18;;
21122;SDS011;10719;48.130;11.630;2023-04-09T11:18:01;14.45;;;5.63;;
21122;SDS011;10719;48.130;11.630;2023-04-09T11:20:27;12.07;;;4.88;;
21122;SDS011;10719;48.130;11.630;2023-04-09T11:22:55;12.90;;;4.93;;
21122;SDS011;10719;48.130;11.630;2023-04-09T11:25:24;11.13;;;4.63;;
21122;SDS011;10719;48.130;11.630;2023-04-09T11:27:51;12.90;;;4.93;;
21122;SDS011;10719;48.130;11.630;2023-04-09T11:30:17;13.70;;;5.38;;
21122;SDS011;10719;48.130;11.630;2023-04-09T11:32:43;12.27;;;5.28;;
21122;SDS011;10719;48.130;11.630;2023-04-09T11:35:13;12.15;;;4.55;;
21122;SDS011;10719;48.130;11.630;2023-04-09T11:37:40;11.82;;;4.40;;
21122;SDS011;10719;48.130;11.630;2023-04-09T11:40:13;11.65;;;4.47;;
21122;SDS011;10719;48.130;11.630;2023-04-09T11:42:40;13.75;;;4.72;;
21122;SDS011;10719;48.130;11.630;2023-04-09T11:45:07;14.02;;;4.55;;
21122;SDS011;10719;48.130;11.630;2023-04-09T11:47:33;13.07;;;4.53;;
21122;SDS011;10719;48.130;11.630;2023-04-09T11:49:59;13.25;;;4.38;;
21122;SDS011;10719;48.130;11.630;2023-04-09T11:52:25;15.40;;;5.90;;
21122;SDS011;10719;48.130;11.630;2023-04-09T11:54:52;11.15;;;4.68;;
21122;SDS011;10719;48.130;11.630;2023-04-09T11:57:17;14.33;;;5.83;;
21122;SDS011;10719;48.130;11.630;2023-04-09T11:59:43;13.55;;;5.03;;
21122;SDS011;10719;48.130;11.630;2023-04-09T12:02:09;13.45;;;5.80;;
21122;SDS011;10719;48.130;11.630;2023-04-09T12:04:34;13.40;;;4.93;;
21122;SDS011;10719;48.130;11.630;2023-04-09T12:07:00;11.48;;;4.40;;
21122;SDS011;10719;48.130;11.630;2023-04-09T12:09:26;13.75;;;5.13;;
21122;SDS011;10719;48.130;11.630;2023-04-09T12:11:51;9.43;;;3.90;;
21122;SDS011;10719;48.130;11.630;2023-04-09T12:14:17;10.65;;;4.65;;
21122;SDS011;10719;48.130;11.630;2023-04-09T12:16:45;13.43;;;4.68;;
21122;SDS011;10719;48.130;11.630;2023-04-09T12:19:15;14.40;;;5.03;;
21122;SDS011;10719;48.130;11.630;2023-04-09T12:24:15;12.95;;;5.22;;
21122;SDS011;10719;48.130;11.630;2023-04-09T12:26:42;15.15;;;5.43;;
21122;SDS011;10719;48.130;11.630;2023-04-09T12:29:08;15.13;;;5.55;;
21122;SDS011;10719;48.130;11.630;2023-04-09T12:31:34;12.80;;;4.75;;
21122;SDS011;10719;48.130;11.630;2023-04-09T12:34:00;13.10;;;4.70;;
21122;SDS011;10719;48.130;11.630;2023-04-09T12:36:26;15.00;;;4.95;;
21122;SDS011;10719;48.130;11.630;2023-04-09T12:38:51;15.73;;;6.22;;
21122;SDS011;10719;48.130;11.630;2023-04-09T12:41:17;15.05;;;5.75;;
21122;SDS011;10719;48.130;11.630;2023-04-09T12:43:42;17.15;;;5.88;;
21122;SDS011;10719;48.130;11.630;2023-04-09T12:46:08;12.90;;;5.10;;
21122;SDS011;10719;48.130;11.630;2023-04-09T12:48:34;13.90;;;5.22;;
21122;SDS011;10719;48.130;11.630;2023-04-09T12:51:00;15.52;;;5.32;;
21122;SDS011;10719;48.130;11.630;2023-04-09T12:53:26;14.82;;;5.28;;
21122;SDS011;10719;48.130;11.630;2023-04-09T12:55:51;14.57;;;5.07;;
21122;SDS011;10719;48.130;11.630;2023-04-09T12:58:17;15.60;;;5.82;;
21122;SDS011;10719;48.130;11.630;2023-04-09T13:00:43;18.38;;;5.43;;
21122;SDS011;10719;48.130;11.630;2023-04-09T13:03:08;13.35;;;4.68;;
21122;SDS011;10719;48.130;11.630;2023-04-09T13:05:34;11.10;;;4.90;;
21122;SDS011;10719;48.130;11.630;2023-04-09T13:08:00;13.57;;;5.18;;
21122;SDS011;10719;48.130;11.630;2023-04-09T13:10:26;12.70;;;5.03;;
21122;SDS011;10719;48.130;11.630;2023-04-09T13:12:53;12.10;;;4.45;;
21122;SDS011;10719;48.130;11.630;2023-04-09T13:15:18;13.30;;;5.43;;
21122;SDS011;10719;48.130;11.630;2023-04-09T13:17:44;16.35;;;5.30;;
21122;SDS011;10719;48.130;11.630;2023-04-09T13:20:09;12.82;;;4.55;;
21122;SDS011;10719;48.130;11.630;2023-04-09T13:22:36;11.25;;;4.82;;
21122;SDS011;10719;48.130;11.630;2023-04-09T13:25:02;13.45;;;5.13;;
21122;SDS011;10719;48.130;11.630;2023-04-09T13:27:28;10.02;;;3.72;;
21122;SDS011;10719;48.130;11.630;2023-04-09T13:29:53;11.52;;;4.18;;
21122;SDS011;10719;48.130;11.630;2023-04-09T13:32:20;12.13;;;4.40;;
21122;SDS011;10719;48.130;11.630;2023-04-09T13:34:47;13.00;;;5.15;;
21122;SDS011;10719;48.130;11.630;2023-04-09T13:37:13;11.55;;;4.88;;
21122;SDS011;10719;48.130;11.630;2023-04-09T13:39:39;15.25;;;6.10;;
21122;SDS011;10719;48.130;11.630;2023-04-09T13:42:04;15.00;;;5.57;;
21122;SDS011;10719;48.130;11.630;2023-04-09T13:44:36;12.65;;;4.90;;
21122;SDS011;10719;48.130;11.630;2023-04-09T13:47:04;13.80;;;4.97;;
21122;SDS011;10719;48.130;11.630;2023-04-09T13:49:30;10.60;;;4.45;;
21122;SDS011;10719;48.130;11.630;2023-04-09T13:51:56;11.63;;;4.43;;
21122;SDS011;10719;48.130;11.630;2023-04-09T13:54:21;12.48;;;4.07;;
21122;SDS011;10719;48.130;11.630;2023-04-09T13:56:47;12.05;;;4.07;;
21122;SDS011;10719;48.130;11.630;2023-04-09T13:59:14;9.10;;;3.50;;
21122;SDS011;10719;48.130;11.630;2023-04-09T14:01:40;10.40;;;4.18;;
21122;SDS011;10719;48.130;11.630;2023-04-09T14:04:06;10.75;;;4.50;;
21122;SDS011;10719;48.130;11.630;2023-04-09T14:06:32;12.65;;;4.43;;
21122;SDS011;10719;48.130;11.630;2023-04-09T14:08:57;11.20;;;3.92;;
21122;SDS011;10719;48.130;11.630;2023-04-09T14:11:23;10.90;;;4.65;;
21122;SDS011;10719;48.130;11.630;2023-04-09T14:13:48;12.90;;;4.70;;
21122;SDS011;10719;48.130;11.630;2023-04-09T14:16:14;11.00;;;4.15;;
21122;SDS011;10719;48.130;11.630;2023-04-09T14:18:40;11.45;;;4.40;;
21122;SDS011;10719;48.130;11.630;2023-04-09T14:21:06;11.07;;;4.57;;
21122;SDS011;10719;48.130;11.630;2023-04-09T14:23:32;12.18;;;4.40;;
21122;SDS011;10719;48.130;11.630;2023-04-09T14:25:58;10.73;;;4.25;;
21122;SDS011;10719;48.130;11.630;2023-04-09T14:28:23;12.90;;;5.73;;
21122;SDS011;10719;48.130;11.630;2023-04-09T14:30:49;11.93;;;4.68;;
21122;SDS011;10719;48.130;11.630;2023-04-09T14:33:15;12.63;;;4.88;;
21122;SDS011;10719;48.130;11.630;2023-04-09T14:35:40;13.13;;;5.03;;
21122;SDS011;10719;48.130;11.630;2023-04-09T14:38:06;11.25;;;4.45;;
21122;SDS011;10719;48.130;11.630;2023-04-09T14:40:33;11.90;;;4.78;;
21122;SDS011;10719;48.130;11.630;2023-04-09T14:43:00;11.05;;;3.72;;
21122;SDS011;10719;48.130;11.630;2023-04-09T14:45:26;9.35;;;3.92;;
21122;SDS011;10719;48.130;11.630;2023-04-09T14:47:51;10.75;;;3.83;;